createdAt,value
2022-12-26T00:01:18.311Z,101008.47
2022-12-26T00:02:10.932Z,101011.97
2022-12-26T00:03:01.098Z,101002.97
2022-12-26T00:03:45.379Z,101006.03
2022-12-26T00:04:51.844Z,100999.47
2022-12-26T00:05:31.849Z,101008.47
2022-12-26T00:06:24.887Z,101008.84
2022-12-26T00:07:08.665Z,100999.81
2022-12-26T00:07:51.876Z,100997.09
2022-12-26T00:08:38.183Z,101004.09
2022-12-26T00:09:22.272Z,101004.09
2022-12-26T00:10:07.897Z,100995.53
2022-12-26T00:10:53.526Z,100992.81
2022-12-26T00:11:51.437Z,100995.97
2022-12-26T00:12:29.060Z,100998.25
2022-12-26T00:13:38.208Z,101010.69
2022-12-26T00:14:18.792Z,101014.63
2022-12-26T00:15:14.351Z,101011.03
2022-12-26T00:18:05.169Z,101013.41
2022-12-26T00:19:04.461Z,101017.34
2022-12-26T00:20:29.978Z,101012.25
2022-12-26T00:21:18.414Z,101010.69
2022-12-26T00:22:11.995Z,101016.56
2022-12-26T00:22:55.313Z,101009.97
2022-12-26T00:23:47.305Z,101019.69
2022-12-26T00:24:43.296Z,101011.81
2022-12-26T00:25:19.184Z,101011.81
2022-12-26T00:26:05.570Z,101013.75
2022-12-26T00:26:47.361Z,101014.13
2022-12-26T00:27:28.962Z,101020.41
2022-12-26T00:28:05.972Z,101021.19
2022-12-26T00:28:43.314Z,101010.25
2022-12-26T00:29:27.524Z,101011.47
2022-12-26T00:29:59.256Z,101018.84
2022-12-26T00:30:34.209Z,101029.00
2022-12-26T00:31:21.322Z,101018.41
2022-12-26T00:31:58.232Z,101019.53
2022-12-26T00:32:34.880Z,101030.84
2022-12-26T00:33:09.496Z,101032.84
2022-12-26T00:33:48.603Z,101029.34
2022-12-26T00:34:30.883Z,101032.84
2022-12-26T00:35:08.563Z,101041.44
2022-12-26T00:36:07.618Z,101044.16
2022-12-26T00:36:39.043Z,101039.88
2022-12-26T00:37:10.505Z,101036.00
2022-12-26T00:37:41.925Z,101049.59
2022-12-26T00:38:13.293Z,101040.66
2022-12-26T00:38:46.406Z,101045.72
2022-12-26T00:39:17.876Z,101036.78
2022-12-26T00:39:49.356Z,101039.50
2022-12-26T00:40:20.784Z,101040.28
2022-12-26T00:40:52.164Z,101037.56
2022-12-26T00:41:23.755Z,101034.88
2022-12-26T00:41:55.332Z,101039.06
2022-12-26T00:42:26.897Z,101041.88
2022-12-26T00:42:58.372Z,101037.56
2022-12-26T00:43:30.310Z,101039.94
2022-12-26T00:44:01.974Z,101041.88
2022-12-26T00:44:33.402Z,101043.00
2022-12-26T00:45:05.295Z,101044.59
2022-12-26T00:45:36.846Z,101038.38
2022-12-26T00:46:09.718Z,101039.94
2022-12-26T00:46:41.150Z,101036.00
2022-12-26T00:47:12.817Z,101042.31
2022-12-26T00:47:44.402Z,101044.22
2022-12-26T00:48:16.043Z,101041.16
2022-12-26T00:48:47.946Z,101045.03
2022-12-26T00:49:19.522Z,101046.94
2022-12-26T00:50:14.212Z,101041.53
2022-12-26T00:50:42.361Z,101049.31
2022-12-26T00:51:14.692Z,101045.47
2022-12-26T00:51:46.263Z,101046.59
2022-12-26T00:52:17.745Z,101042.31
2022-12-26T00:52:49.069Z,101050.09
2022-12-26T00:53:20.991Z,101046.25
2022-12-26T00:53:52.438Z,101045.81
2022-12-26T00:54:23.976Z,101047.75
2022-12-26T00:54:55.439Z,101047.75
2022-12-26T00:55:26.887Z,101048.09
2022-12-26T00:55:58.743Z,101050.47
2022-12-26T00:56:30.160Z,101041.53
2022-12-26T00:57:01.717Z,101044.59
2022-12-26T00:57:33.176Z,101046.94
2022-12-26T00:58:04.933Z,101039.16
2022-12-26T00:58:36.796Z,101045.03
2022-12-26T00:59:08.357Z,101048.09
2022-12-26T00:59:39.964Z,101046.53
2022-12-26T01:00:12.300Z,101050.47
2022-12-26T01:00:43.949Z,101047.75
2022-12-26T01:01:19.225Z,101053.19
2022-12-26T01:01:51.326Z,101057.47
2022-12-26T01:02:38.422Z,101053.97
2022-12-26T01:03:11.934Z,101054.41
2022-12-26T01:03:45.445Z,101046.94
2022-12-26T01:04:16.944Z,101053.97
2022-12-26T01:04:48.370Z,101055.91
2022-12-26T01:05:19.989Z,101051.59
2022-12-26T01:05:52.050Z,101057.81
2022-12-26T01:06:23.758Z,101056.25
2022-12-26T01:06:55.434Z,101057.03
2022-12-26T01:07:27.469Z,101053.53
2022-12-26T01:08:23.260Z,101057.81
2022-12-26T01:08:50.975Z,101060.19
2022-12-26T01:09:22.578Z,101058.63
2022-12-26T01:09:54.140Z,101061.31
2022-12-26T01:10:26.889Z,101062.91
2022-12-26T01:11:03.610Z,101057.03
2022-12-26T01:11:41.204Z,101058.63
2022-12-26T01:12:12.773Z,101055.91
2022-12-26T01:12:44.630Z,101058.63
2022-12-26T01:13:16.285Z,101050.81
2022-12-26T01:13:47.880Z,101048.88
2022-12-26T01:14:19.856Z,101041.09
2022-12-26T01:14:51.425Z,101053.97
2022-12-26T01:15:23.498Z,101049.31
2022-12-26T01:15:55.171Z,101043.44
2022-12-26T01:16:27.396Z,101048.88
2022-12-26T01:16:59.044Z,101049.31
2022-12-26T01:17:30.778Z,101046.94
2022-12-26T01:18:02.970Z,101049.31
2022-12-26T01:18:35.047Z,101051.25
2022-12-26T01:19:07.325Z,101045.03
2022-12-26T01:19:39.257Z,101046.94
2022-12-26T01:20:11.770Z,101046.16
2022-12-26T01:20:43.222Z,101046.94
2022-12-26T01:21:14.857Z,101053.19
2022-12-26T01:21:46.664Z,101054.31
2022-12-26T01:22:18.348Z,101046.16
2022-12-26T01:22:50.059Z,101052.03
2022-12-26T01:23:21.703Z,101053.19
2022-12-26T01:23:53.423Z,101056.69
2022-12-26T01:24:25.087Z,101060.19
2022-12-26T01:24:58.034Z,101061.75
2022-12-26T01:25:29.791Z,101059.41
2022-12-26T01:26:18.343Z,101053.97
2022-12-26T01:26:51.426Z,101057.47
2022-12-26T01:27:24.326Z,101048.53
2022-12-26T01:27:56.032Z,101049.31
2022-12-26T01:28:27.610Z,101048.19
2022-12-26T01:28:59.250Z,101047.38
2022-12-26T01:29:49.163Z,101053.22
2022-12-26T01:30:21.177Z,101054.00
2022-12-26T01:30:52.899Z,101050.88
2022-12-26T01:31:24.697Z,101052.44
2022-12-26T01:31:56.443Z,101050.88
2022-12-26T01:32:28.202Z,101047.00
2022-12-26T01:32:59.784Z,101052.44
2022-12-26T01:33:32.502Z,101041.56
2022-12-26T01:34:03.941Z,101047.00
2022-12-26T01:34:35.514Z,101043.13
2022-12-26T01:35:07.096Z,101043.53
2022-12-26T01:35:38.557Z,101037.66
2022-12-26T01:36:10.295Z,101047.00
2022-12-26T01:37:00.119Z,101048.97
2022-12-26T01:37:31.617Z,101048.19
2022-12-26T01:38:03.039Z,101047.00
2022-12-26T01:38:34.441Z,101045.06
2022-12-26T01:39:05.860Z,101045.06
2022-12-26T01:39:37.303Z,101043.13
2022-12-26T01:40:29.773Z,101043.53
2022-12-26T01:41:19.526Z,101045.06
2022-12-26T01:41:51.307Z,101052.44
2022-12-26T01:42:25.392Z,101046.66
2022-12-26T01:42:56.825Z,101043.13
2022-12-26T01:43:56.756Z,101044.28
2022-12-26T01:45:07.256Z,101047.44
2022-12-26T01:45:38.969Z,101046.66
2022-12-26T01:46:10.538Z,101049.31
2022-12-26T01:46:45.581Z,101054.00
2022-12-26T01:47:18.675Z,101049.38
2022-12-26T01:48:17.117Z,101047.44
2022-12-26T01:48:49.097Z,101042.34
2022-12-26T01:49:32.264Z,101050.50
2022-12-26T01:50:05.116Z,101050.50
2022-12-26T01:50:58.777Z,101052.44
2022-12-26T01:51:33.957Z,101045.47
2022-12-26T01:52:20.258Z,101052.03
2022-12-26T01:52:52.782Z,101048.97
2022-12-26T01:53:40.058Z,101055.53
2022-12-26T01:54:37.352Z,101058.63
2022-12-26T01:55:08.445Z,101059.41
2022-12-26T01:55:41.543Z,101056.31
2022-12-26T01:56:23.951Z,101055.53
2022-12-26T01:56:55.476Z,101057.88
2022-12-26T01:57:33.624Z,101066.03
2022-12-26T01:58:14.663Z,101062.47
2022-12-26T01:59:00.548Z,101057.03
2022-12-26T01:59:45.445Z,101061.31
2022-12-26T02:00:21.817Z,101063.25
2022-12-26T02:00:58.800Z,101068.75
2022-12-26T02:01:40.403Z,101053.88
2022-12-26T02:02:15.650Z,101051.59
2022-12-26T02:03:09.362Z,101055.53
2022-12-26T02:04:05.256Z,101055.53
2022-12-26T02:05:01.942Z,101061.75
2022-12-26T02:05:39.797Z,101058.63
2022-12-26T02:06:17.599Z,101044.59
2022-12-26T02:06:52.569Z,101054.31
2022-12-26T02:07:29.020Z,101051.59
2022-12-26T02:08:12.188Z,101053.97
2022-12-26T02:08:45.930Z,101048.88
2022-12-26T02:09:20.858Z,101053.97
2022-12-26T02:09:57.723Z,101052.38
2022-12-26T02:10:33.957Z,101051.16
2022-12-26T02:11:35.420Z,101057.47
2022-12-26T02:12:35.720Z,101054.75
2022-12-26T02:13:13.164Z,101051.69
2022-12-26T02:13:59.183Z,101048.19
2022-12-26T02:14:40.725Z,101052.44
2022-12-26T02:15:17.956Z,101040.72
2022-12-26T02:15:49.594Z,101044.22
2022-12-26T02:16:30.847Z,101047.75
2022-12-26T02:17:03.012Z,101045.03
2022-12-26T02:17:40.467Z,101043.88
2022-12-26T02:18:17.898Z,101045.81
2022-12-26T02:18:51.276Z,101039.59
2022-12-26T02:19:32.535Z,101047.38
2022-12-26T02:20:16.925Z,101044.66
2022-12-26T02:21:03.787Z,101040.03
2022-12-26T02:22:12.461Z,101040.81
2022-12-26T02:23:26.541Z,101042.75
2022-12-26T02:24:21.492Z,101039.22
2022-12-26T02:25:06.893Z,101043.88
2022-12-26T02:26:05.146Z,101039.59
2022-12-26T02:27:01.532Z,101040.28
2022-12-26T02:27:52.513Z,101045.03
2022-12-26T02:29:08.868Z,101043.09
2022-12-26T02:30:04.867Z,101045.81
2022-12-26T02:30:42.179Z,101040.72
2022-12-26T02:31:32.199Z,101044.59
2022-12-26T02:32:21.699Z,101042.22
2022-12-26T02:33:18.684Z,101046.16
2022-12-26T02:34:16.375Z,101051.59
2022-12-26T02:35:09.738Z,101050.03
2022-12-26T02:36:20.567Z,101056.25
2022-12-26T02:37:23.562Z,101044.50
2022-12-26T02:38:26.464Z,101054.59
2022-12-26T02:39:45.587Z,101047.66
2022-12-26T02:40:32.090Z,101048.00
2022-12-26T02:41:17.055Z,101056.97
2022-12-26T02:42:07.059Z,101050.38
2022-12-26T02:42:41.366Z,101052.31
2022-12-26T02:43:21.109Z,101046.09
2022-12-26T02:43:55.246Z,101054.25
2022-12-26T02:45:00.354Z,101044.16
2022-12-26T02:46:08.296Z,101049.59
2022-12-26T02:47:03.940Z,101044.16
2022-12-26T02:47:53.586Z,101037.94
2022-12-26T02:48:36.187Z,101044.50
2022-12-26T02:49:20.633Z,101042.59
2022-12-26T02:50:28.605Z,101048.00
2022-12-26T02:51:53.704Z,101041.78
2022-12-26T02:52:56.532Z,101049.94
2022-12-26T02:53:57.850Z,101051.09
2022-12-26T02:54:59.937Z,101046.78
2022-12-26T02:55:51.898Z,101037.41
2022-12-26T02:56:49.640Z,101039.00
2022-12-26T02:57:43.303Z,101040.56
2022-12-26T02:58:40.477Z,101033.13
2022-12-26T03:00:22.726Z,101033.13
2022-12-26T03:01:22.881Z,101034.25
2022-12-26T03:02:17.478Z,101033.47
2022-12-26T03:03:15.799Z,101029.94
2022-12-26T03:04:09.328Z,101026.44
2022-12-26T03:05:01.613Z,101036.16
2022-12-26T03:06:12.728Z,101028.38
2022-12-26T03:07:11.499Z,101037.31
2022-12-26T03:08:01.742Z,101029.94
2022-12-26T03:09:23.827Z,101033.03
2022-12-26T03:10:15.927Z,101029.50
2022-12-26T03:11:07.649Z,101026.41
2022-12-26T03:12:19.367Z,101027.59
2022-12-26T03:13:12.221Z,101026.81
2022-12-26T03:13:45.899Z,101026.41
2022-12-26T03:14:30.015Z,101029.91
2022-12-26T03:15:04.268Z,101028.31
2022-12-26T03:15:59.601Z,101033.75
2022-12-26T03:17:09.649Z,101029.50
2022-12-26T03:17:44.535Z,101033.38
2022-12-26T03:18:17.725Z,101027.94
2022-12-26T03:19:12.356Z,101037.66
2022-12-26T03:20:01.494Z,101030.66
2022-12-26T03:20:38.270Z,101036.09
2022-12-26T03:21:11.887Z,101036.09
2022-12-26T03:21:45.785Z,101032.63
2022-12-26T03:22:30.568Z,101043.09
2022-12-26T03:23:13.133Z,101038.06
2022-12-26T03:23:47.189Z,101040.78
2022-12-26T03:24:18.706Z,101039.97
2022-12-26T03:25:09.944Z,101041.91
2022-12-26T03:26:09.524Z,101047.34
2022-12-26T03:26:47.687Z,101044.25
2022-12-26T03:27:19.128Z,101044.63
2022-12-26T03:27:50.769Z,101048.91
2022-12-26T03:28:23.832Z,101053.19
2022-12-26T03:29:18.845Z,101045.41
2022-12-26T03:30:09.149Z,101048.91
2022-12-26T03:30:50.495Z,101052.38
2022-12-26T03:31:22.365Z,101051.63
2022-12-26T03:31:53.873Z,101053.19
2022-12-26T03:32:25.299Z,101056.28
2022-12-26T03:32:57.963Z,101042.69
2022-12-26T03:33:54.361Z,101045.81
2022-12-26T03:34:26.233Z,101046.59
2022-12-26T03:34:57.675Z,101046.59
2022-12-26T03:35:32.978Z,101041.16
2022-12-26T03:36:05.840Z,101051.25
2022-12-26T03:37:10.519Z,101053.19
2022-12-26T03:37:52.506Z,101052.03
2022-12-26T03:38:51.360Z,101044.69
2022-12-26T03:39:59.625Z,101052.81
2022-12-26T03:41:05.256Z,101043.09
2022-12-26T03:42:13.975Z,101047.75
2022-12-26T03:43:12.895Z,101051.25
2022-12-26T03:44:17.810Z,101045.41
2022-12-26T03:45:19.352Z,101045.41
2022-12-26T03:46:40.976Z,101044.25
2022-12-26T03:47:43.885Z,101053.56
2022-12-26T03:48:50.285Z,101040.34
2022-12-26T03:49:49.811Z,101041.13
2022-12-26T03:50:56.858Z,101035.69
2022-12-26T03:52:22.290Z,101039.19
2022-12-26T03:53:24.207Z,101039.53
2022-12-26T03:54:30.124Z,101044.19
2022-12-26T03:55:40.340Z,101043.06
2022-12-26T03:57:09.837Z,101043.41
2022-12-26T03:58:09.988Z,101044.53
2022-12-26T03:59:17.909Z,101041.03
2022-12-26T04:00:23.407Z,101046.13
2022-12-26T04:01:16.174Z,101051.13
2022-12-26T04:02:08.790Z,101034.81
2022-12-26T04:03:03.572Z,101042.63
2022-12-26T04:03:56.965Z,101042.63
2022-12-26T04:04:51.692Z,101030.97
2022-12-26T04:05:43.322Z,101034.47
2022-12-26T04:06:42.006Z,101039.13
2022-12-26T04:07:56.041Z,101035.59
2022-12-26T04:09:10.273Z,101034.03
2022-12-26T04:10:10.475Z,101041.41
2022-12-26T04:11:06.201Z,101039.47
2022-12-26T04:12:00.613Z,101041.41
2022-12-26T04:12:52.097Z,101040.25
2022-12-26T04:13:47.695Z,101034.81
2022-12-26T04:14:56.409Z,101032.09
2022-12-26T04:15:59.529Z,101032.09
2022-12-26T04:16:55.544Z,101042.19
2022-12-26T04:17:58.786Z,101039.47
2022-12-26T04:19:00.344Z,101032.47
2022-12-26T04:20:00.345Z,101037.53
2022-12-26T04:20:47.394Z,101032.81
2022-12-26T04:21:45.558Z,101035.53
2022-12-26T04:23:05.163Z,101036.31
2022-12-26T04:24:03.730Z,101043.69
2022-12-26T04:25:00.984Z,101047.19
2022-12-26T04:25:58.202Z,101049.09
2022-12-26T04:26:55.625Z,101046.41
2022-12-26T04:27:49.228Z,101047.53
2022-12-26T04:28:41.764Z,101047.19
2022-12-26T04:29:31.853Z,101049.09
2022-12-26T04:30:23.126Z,101041.75
2022-12-26T04:31:21.756Z,101053.75
2022-12-26T04:32:27.369Z,101050.69
2022-12-26T04:33:27.592Z,101046.41
2022-12-26T04:34:21.820Z,101049.91
2022-12-26T04:35:31.315Z,101044.81
2022-12-26T04:36:28.138Z,101043.25
2022-12-26T04:37:23.400Z,101044.81
2022-12-26T04:38:15.363Z,101063.84
2022-12-26T04:39:15.954Z,101054.91
2022-12-26T04:40:09.952Z,101053.31
2022-12-26T04:41:05.587Z,101050.97
2022-12-26T04:41:57.833Z,101055.25
2022-12-26T04:42:49.655Z,101059.09
2022-12-26T04:43:47.569Z,101056.75
2022-12-26T04:44:24.348Z,101054.81
2022-12-26T04:44:57.564Z,101048.94
2022-12-26T04:45:29.426Z,101048.94
2022-12-26T04:46:02.060Z,101051.22
2022-12-26T04:46:37.125Z,101055.16
2022-12-26T04:47:08.948Z,101053.94
2022-12-26T04:48:05.612Z,101059.81
2022-12-26T04:49:11.684Z,101058.66
2022-12-26T04:50:04.716Z,101048.09
2022-12-26T04:50:52.448Z,101057.88
2022-12-26T04:51:27.219Z,101050.03
2022-12-26T04:52:03.730Z,101048.47
2022-12-26T04:52:54.074Z,101047.72
2022-12-26T04:53:25.676Z,101035.22
2022-12-26T04:54:00.394Z,101038.72
2022-12-26T04:54:51.629Z,101039.16
2022-12-26T04:55:23.321Z,101034.88
2022-12-26T04:55:54.719Z,101041.09
2022-12-26T04:56:26.144Z,101040.31
2022-12-26T04:56:57.599Z,101039.16
2022-12-26T04:57:28.945Z,101043.81
2022-12-26T04:58:00.458Z,101044.94
2022-12-26T04:58:31.848Z,101041.09
2022-12-26T04:59:11.116Z,101041.00
2022-12-26T04:59:47.535Z,101035.16
2022-12-26T05:00:27.898Z,101034.78
2022-12-26T05:01:19.272Z,101031.28
2022-12-26T05:02:17.891Z,101034.72
2022-12-26T05:03:19.290Z,101035.16
2022-12-26T05:04:13.060Z,101041.44
2022-12-26T05:05:10.270Z,101030.50
2022-12-26T05:06:09.596Z,101030.50
2022-12-26T05:07:05.017Z,101033.66
2022-12-26T05:08:00.932Z,101022.34
2022-12-26T05:09:07.032Z,101020.78
2022-12-26T05:09:41.106Z,101023.84
2022-12-26T05:10:20.632Z,101032.88
2022-12-26T05:10:57.049Z,101024.28
2022-12-26T05:11:47.185Z,101021.47
2022-12-26T05:12:24.051Z,101012.56
2022-12-26T05:13:01.164Z,101009.03
2022-12-26T05:13:39.013Z,101012.56
2022-12-26T05:14:19.872Z,101011.75
2022-12-26T05:14:55.114Z,101008.69
2022-12-26T05:15:51.630Z,101007.81
2022-12-26T05:16:48.610Z,101005.97
2022-12-26T05:17:44.825Z,101012.56
2022-12-26T05:18:36.353Z,101010.19
2022-12-26T05:19:30.380Z,101008.63
2022-12-26T05:20:24.108Z,101014.03
2022-12-26T05:21:14.549Z,101016.75
2022-12-26T05:22:10.575Z,101007.03
2022-12-26T05:23:06.556Z,101008.19
2022-12-26T05:24:17.383Z,101014.03
2022-12-26T05:25:15.493Z,101006.94
2022-12-26T05:26:12.834Z,101012.03
2022-12-26T05:27:13.610Z,101013.16
2022-12-26T05:28:34.764Z,101015.88
2022-12-26T05:29:13.814Z,101009.63
2022-12-26T05:29:50.972Z,101013.56
2022-12-26T05:30:29.666Z,101010.41
2022-12-26T05:31:20.406Z,101010.41
2022-12-26T05:31:59.984Z,101010.41
2022-12-26T05:32:52.678Z,101013.16
2022-12-26T05:33:47.899Z,101015.84
2022-12-26T05:34:25.534Z,101013.13
2022-12-26T05:34:57.273Z,101018.91
2022-12-26T05:35:32.392Z,101020.91
2022-12-26T05:36:19.760Z,101025.16
2022-12-26T05:37:05.098Z,101030.25
2022-12-26T05:37:48.315Z,101022.06
2022-12-26T05:38:42.727Z,101025.91
2022-12-26T05:39:22.113Z,101037.19
2022-12-26T05:39:56.235Z,101037.59
2022-12-26T05:40:33.265Z,101035.19
2022-12-26T05:41:10.050Z,101034.03
2022-12-26T05:41:50.463Z,101031.78
2022-12-26T05:42:30.952Z,101031.34
2022-12-26T05:43:10.286Z,101035.19
2022-12-26T05:43:50.397Z,101027.84
2022-12-26T05:44:22.323Z,101039.47
2022-12-26T05:45:09.766Z,101027.84
2022-12-26T05:45:44.303Z,101026.25
2022-12-26T05:46:20.958Z,101032.81
2022-12-26T05:46:52.578Z,101031.34
2022-12-26T05:47:29.286Z,101025.03
2022-12-26T05:48:07.758Z,101029.31
2022-12-26T05:48:42.450Z,101036.31
2022-12-26T05:49:25.252Z,101030.53
2022-12-26T05:50:07.576Z,101029.31
2022-12-26T05:50:54.164Z,101031.34
2022-12-26T05:51:28.180Z,101033.63
2022-12-26T05:52:16.260Z,101041.75
2022-12-26T05:53:00.407Z,101042.53
2022-12-26T05:53:49.703Z,101038.16
2022-12-26T05:54:28.290Z,101035.44
2022-12-26T05:55:04.532Z,101038.59
2022-12-26T05:56:03.827Z,101040.09
2022-12-26T05:56:35.663Z,101035.44
2022-12-26T05:57:12.453Z,101035.44
2022-12-26T05:57:46.729Z,101038.94
2022-12-26T05:58:32.304Z,101047.53
2022-12-26T05:59:08.491Z,101042.09
2022-12-26T05:59:54.403Z,101040.88
2022-12-26T06:00:33.938Z,101033.19
2022-12-26T06:01:22.348Z,101046.06
2022-12-26T06:01:59.495Z,101042.09
2022-12-26T06:02:36.709Z,101030.03
2022-12-26T06:03:08.288Z,101039.41
2022-12-26T06:03:50.907Z,101036.25
2022-12-26T06:04:32.880Z,101028.44
2022-12-26T06:05:09.537Z,101030.09
2022-12-26T06:05:49.075Z,101024.16
2022-12-26T06:06:27.300Z,101026.88
2022-12-26T06:07:11.666Z,101023.03
2022-12-26T06:07:45.983Z,101020.66
2022-12-26T06:08:19.896Z,101019.16
2022-12-26T06:08:59.644Z,101025.28
2022-12-26T06:09:37.135Z,101012.50
2022-12-26T06:10:26.400Z,101019.88
2022-12-26T06:11:11.205Z,101014.34
2022-12-26T06:11:51.292Z,101010.50
2022-12-26T06:12:33.684Z,101021.34
2022-12-26T06:13:25.694Z,101027.22
2022-12-26T06:14:09.572Z,101024.84
2022-12-26T06:14:56.754Z,101027.47
2022-12-26T06:15:31.110Z,101028.28
2022-12-26T06:16:19.119Z,101030.19
2022-12-26T06:16:56.932Z,101029.41
2022-12-26T06:17:34.397Z,101029.41
2022-12-26T06:18:08.826Z,101019.72
2022-12-26T06:18:46.249Z,101028.63
2022-12-26T06:19:25.396Z,101031.00
2022-12-26T06:20:00.247Z,101025.56
2022-12-26T06:20:32.779Z,101026.69
2022-12-26T06:21:10.565Z,101036.84
2022-12-26T06:21:48.076Z,101034.13
2022-12-26T06:22:22.180Z,101035.72
2022-12-26T06:22:53.758Z,101036.84
2022-12-26T06:23:28.617Z,101034.50
2022-12-26T06:24:05.539Z,101041.16
2022-12-26T06:24:39.137Z,101041.59
2022-12-26T06:25:10.790Z,101043.41
2022-12-26T06:25:42.369Z,101036.84
2022-12-26T06:26:14.278Z,101047.38
2022-12-26T06:26:49.734Z,101043.16
2022-12-26T06:27:29.511Z,101036.84
2022-12-26T06:28:01.119Z,101036.50
2022-12-26T06:28:41.967Z,101034.22
2022-12-26T06:29:19.313Z,101040.44
2022-12-26T06:29:52.589Z,101027.56
2022-12-26T06:30:25.692Z,101026.78
2022-12-26T06:31:10.468Z,101027.47
2022-12-26T06:32:02.366Z,101021.28
2022-12-26T06:32:34.031Z,101020.13
2022-12-26T06:33:07.948Z,101036.84
2022-12-26T06:33:39.585Z,101021.28
2022-12-26T06:34:13.950Z,101023.19
2022-12-26T06:34:48.360Z,101020.56
2022-12-26T06:35:21.007Z,101017.41
2022-12-26T06:36:04.128Z,101020.84
2022-12-26T06:36:44.557Z,101029.00
2022-12-26T06:37:21.813Z,101026.28
2022-12-26T06:37:58.864Z,101034.06
2022-12-26T06:38:30.561Z,101035.56
2022-12-26T06:39:02.183Z,101034.78
2022-12-26T06:39:34.067Z,101036.72
2022-12-26T06:40:06.674Z,101043.38
2022-12-26T06:40:40.616Z,101039.88
2022-12-26T06:41:26.565Z,101032.84
2022-12-26T06:41:58.454Z,101035.22
2022-12-26T06:42:42.995Z,101032.84
2022-12-26T06:43:17.954Z,101034.00
2022-12-26T06:43:56.056Z,101037.16
2022-12-26T06:44:28.015Z,101035.91
2022-12-26T06:45:06.525Z,101036.34
2022-12-26T06:45:40.462Z,101039.78
2022-12-26T06:46:24.259Z,101037.50
2022-12-26T06:46:58.904Z,101040.22
2022-12-26T06:47:30.563Z,101046.06
2022-12-26T06:48:02.468Z,101049.59
2022-12-26T06:48:44.062Z,101048.34
2022-12-26T06:49:28.734Z,101057.28
2022-12-26T06:50:04.989Z,101057.28
2022-12-26T06:50:41.911Z,101046.44
2022-12-26T06:51:22.201Z,101044.41
2022-12-26T06:51:56.051Z,101048.69
2022-12-26T06:52:27.490Z,101052.28
2022-12-26T06:52:58.930Z,101048.00
2022-12-26T06:53:30.568Z,101050.72
2022-12-26T06:54:02.751Z,101050.34
2022-12-26T06:54:35.164Z,101056.94
2022-12-26T06:55:15.897Z,101053.44
2022-12-26T06:55:51.571Z,101060.44
2022-12-26T06:56:26.060Z,101060.06
2022-12-26T06:56:58.920Z,101053.00
2022-12-26T06:57:33.640Z,101053.00
2022-12-26T06:58:07.862Z,101050.28
2022-12-26T06:58:39.998Z,101057.63
2022-12-26T06:59:12.025Z,101051.06
2022-12-26T06:59:43.585Z,101064.69
2022-12-26T07:00:15.687Z,101050.72
2022-12-26T07:00:47.151Z,101053.00
2022-12-26T07:01:21.876Z,101049.94
2022-12-26T07:01:56.024Z,101048.34
2022-12-26T07:02:27.679Z,101042.13
2022-12-26T07:03:02.087Z,101048.41
2022-12-26T07:03:34.230Z,101049.13
2022-12-26T07:04:06.275Z,101046.00
2022-12-26T07:04:40.603Z,101043.28
2022-12-26T07:05:19.880Z,101051.50
2022-12-26T07:05:51.527Z,101047.91
2022-12-26T07:06:27.290Z,101044.84
2022-12-26T07:07:03.043Z,101046.78
2022-12-26T07:07:36.684Z,101049.13
2022-12-26T07:08:09.416Z,101049.94
2022-12-26T07:08:46.521Z,101050.28
2022-12-26T07:09:18.996Z,101047.91
2022-12-26T07:09:50.577Z,101045.63
2022-12-26T07:10:22.258Z,101054.22
2022-12-26T07:10:53.739Z,101056.94
2022-12-26T07:11:27.747Z,101054.63
2022-12-26T07:12:01.638Z,101051.84
2022-12-26T07:12:34.734Z,101052.66
2022-12-26T07:13:11.227Z,101048.00
2022-12-26T07:13:45.573Z,101057.00
2022-12-26T07:14:17.638Z,101055.41
2022-12-26T07:14:59.669Z,101051.91
2022-12-26T07:15:33.231Z,101046.06
2022-12-26T07:16:04.956Z,101055.00
2022-12-26T07:17:33.618Z,101068.19
2022-12-26T07:18:11.005Z,101057.34
2022-12-26T07:18:42.788Z,101055.00
2022-12-26T07:19:15.599Z,101054.63
2022-12-26T07:19:47.113Z,101047.63
2022-12-26T07:20:18.884Z,101041.78
2022-12-26T07:20:52.825Z,101046.47
2022-12-26T07:21:27.959Z,101043.38
2022-12-26T07:21:59.647Z,101051.50
2022-12-26T07:22:31.454Z,101035.56
2022-12-26T07:23:09.873Z,101037.94
2022-12-26T07:23:42.246Z,101033.66
2022-12-26T07:24:22.126Z,101037.50
2022-12-26T07:24:54.997Z,101039.41
2022-12-26T07:25:26.850Z,101039.06
2022-12-26T07:26:01.636Z,101047.56
2022-12-26T07:26:35.812Z,101040.56
2022-12-26T07:27:14.251Z,101040.22
2022-12-26T07:27:51.210Z,101038.97
2022-12-26T07:28:22.935Z,101038.97
2022-12-26T07:28:58.713Z,101044.84
2022-12-26T07:29:30.251Z,101042.03
2022-12-26T07:30:01.963Z,101040.56
2022-12-26T07:30:37.738Z,101032.78
2022-12-26T07:31:09.948Z,101037.06
2022-12-26T07:31:44.404Z,101046.06
2022-12-26T07:32:16.205Z,101044.50
2022-12-26T07:32:47.801Z,101045.19
2022-12-26T07:33:47.702Z,101048.69
2022-12-26T07:34:37.096Z,101041.44
2022-12-26T07:35:20.398Z,101030.84
2022-12-26T07:36:12.591Z,101041.34
2022-12-26T07:36:49.927Z,101037.16
2022-12-26T07:37:29.294Z,101033.56
2022-12-26T07:38:13.960Z,101035.84
2022-12-26T07:38:58.715Z,101045.19
2022-12-26T07:39:45.203Z,101027.25
2022-12-26T07:40:47.642Z,101025.31
2022-12-26T07:41:57.655Z,101037.84
2022-12-26T07:42:41.508Z,101028.81
2022-12-26T07:44:18.129Z,101023.75
2022-12-26T07:48:21.256Z,101025.69
2022-12-26T07:52:04.929Z,101027.94
2022-12-26T07:54:48.220Z,101031.81
2022-12-26T07:59:51.982Z,101048.19
2022-12-26T08:01:01.654Z,101038.38
2022-12-26T08:01:58.933Z,101043.09
2022-12-26T08:05:09.779Z,101034.59
2022-12-26T08:06:16.580Z,101054.13
2022-12-26T08:06:52.426Z,101044.75
2022-12-26T08:11:17.974Z,101055.28
2022-12-26T08:12:19.373Z,101044.75
2022-12-26T08:13:39.972Z,101053.78
2022-12-26T08:14:29.538Z,101049.50
2022-12-26T08:15:21.593Z,101056.16
2022-12-26T08:16:12.865Z,101044.84
2022-12-26T08:17:16.566Z,101044.16
2022-12-26T08:18:02.451Z,101042.56
2022-12-26T08:18:39.526Z,101041.00
2022-12-26T08:19:22.342Z,101045.28
2022-12-26T08:19:59.179Z,101043.38
2022-12-26T08:20:58.233Z,101043.28
2022-12-26T08:21:55.975Z,101048.00
2022-12-26T08:23:23.120Z,101051.50
2022-12-26T08:25:32.528Z,101049.19
2022-12-26T08:28:01.048Z,101051.66
2022-12-26T08:29:07.924Z,101055.50
2022-12-26T08:29:43.812Z,101055.06
2022-12-26T08:30:54.530Z,101059.00
2022-12-26T08:33:20.622Z,101067.50
2022-12-26T08:34:22.644Z,101055.06
2022-12-26T08:35:27.276Z,101058.22
2022-12-26T08:36:24.936Z,101063.31
2022-12-26T08:37:16.495Z,101069.97
2022-12-26T08:39:57.365Z,101069.59
2022-12-26T08:42:44.409Z,101069.59
2022-12-26T08:44:26.955Z,101067.31
2022-12-26T08:45:00.524Z,101071.28
2022-12-26T08:45:48.859Z,101084.16
2022-12-26T08:46:37.901Z,101076.00
2022-12-26T08:47:32.532Z,101070.19